createdAt,value
2022-08-26T00:04:50.391Z,18.34
2022-08-26T00:14:30.839Z,18.22
2022-08-26T00:24:04.728Z,18.06
2022-08-26T00:33:43.971Z,17.86
2022-08-26T00:43:19.424Z,17.68
2022-08-26T00:52:56.364Z,17.63
2022-08-26T01:02:33.737Z,17.46
2022-08-26T01:12:11.347Z,17.4
2022-08-26T01:21:48.598Z,17.38
2022-08-26T01:31:25.535Z,17.16
2022-08-26T01:41:02.794Z,17.11
2022-08-26T01:50:40.417Z,16.95
2022-08-26T02:00:17.378Z,16.94
2022-08-26T02:09:54.673Z,16.8
2022-08-26T02:19:31.766Z,16.72
2022-08-26T02:29:10.971Z,16.71
2022-08-26T02:38:47.052Z,16.67
2022-08-26T02:48:24.754Z,16.63
2022-08-26T02:58:01.305Z,16.59
2022-08-26T03:07:38.426Z,16.59
2022-08-26T03:17:15.950Z,16.58
2022-08-26T03:26:53.589Z,16.75
2022-08-26T03:36:30.808Z,16.54
2022-08-26T03:46:08.025Z,16.53
2022-08-26T03:55:45.646Z,16.35
2022-08-26T04:05:22.865Z,16.29
2022-08-26T04:14:59.982Z,16.13
2022-08-26T04:24:37.098Z,16.07
2022-08-26T04:34:14.515Z,15.99
2022-08-26T04:43:51.510Z,16.01
2022-08-26T05:03:07.040Z,16.2
2022-08-26T05:12:44.906Z,16.46
2022-08-26T05:22:22.695Z,16.69
2022-08-26T05:32:00.451Z,16.98
2022-08-26T05:41:38.695Z,17.39
2022-08-26T05:51:16.418Z,17.85
2022-08-26T06:00:54.823Z,18.28
2022-08-26T06:10:33.465Z,18.87
2022-08-26T06:20:12.626Z,19.73
2022-08-26T06:29:51.719Z,20.53
2022-08-26T06:39:31.271Z,21.22
2022-08-26T06:49:09.381Z,21.42
2022-08-26T06:58:47.772Z,21.41
2022-08-26T07:08:25.829Z,21.12
2022-08-26T07:18:04.451Z,21.94
2022-08-26T07:27:43.123Z,22.15
2022-08-26T07:37:21.643Z,22.39
2022-08-26T07:47:00.397Z,22.97
2022-08-26T07:56:39.316Z,23.55
2022-08-26T08:06:16.937Z,23.89
2022-08-26T08:15:54.578Z,24.1
2022-08-26T08:25:33.090Z,24.46
2022-08-26T08:35:11.912Z,24.85
2022-08-26T08:44:51.879Z,25
2022-08-26T08:54:27.937Z,25.16
2022-08-26T09:04:06.387Z,25.66
2022-08-26T09:13:45.316Z,26.26
2022-08-26T09:23:23.946Z,26.53
2022-08-26T09:33:02.215Z,27
2022-08-26T09:42:41.091Z,27.69
2022-08-26T09:52:21.197Z,28.51
2022-08-26T10:02:12.925Z,28.26
2022-08-26T10:11:56.732Z,30.48
2022-08-26T10:21:42.820Z,32.34
2022-08-26T10:31:28.216Z,32.45
2022-08-26T10:41:10.592Z,33.19
2022-08-26T10:50:50.630Z,33.95
2022-08-26T11:00:32.577Z,34.81
2022-08-26T11:09:48.986Z,31.8
2022-08-26T11:19:17.999Z,30.74
2022-08-26T11:29:20.773Z,33.5
2022-08-26T11:39:04.440Z,32.8
2022-08-26T11:48:47.323Z,34.34
2022-08-26T11:58:30.911Z,35.52
2022-08-26T12:08:10.641Z,35.28
2022-08-26T12:17:42.501Z,34.94
2022-08-26T12:27:30.048Z,35.38
2022-08-26T12:37:11.989Z,34.9
2022-08-26T12:46:51.228Z,34.52
2022-08-26T12:56:34.088Z,37.13
2022-08-26T13:06:09.593Z,36.15
2022-08-26T13:15:28.682Z,33.73
2022-08-26T13:24:54.208Z,31.88
2022-08-26T13:34:26.514Z,31.64
2022-08-26T13:44:01.490Z,31.19
2022-08-26T13:53:37.424Z,30.5
2022-08-26T14:03:13.908Z,30.4
2022-08-26T14:12:50.138Z,29.7
2022-08-26T14:22:26.047Z,29.37
2022-08-26T14:32:03.419Z,29.07
2022-08-26T14:41:39.904Z,28.7
2022-08-26T14:51:15.640Z,27.54
2022-08-26T15:00:50.788Z,24.38
2022-08-26T15:10:24.342Z,22.68
2022-08-26T15:19:58.500Z,19.19
2022-08-26T15:29:32.033Z,18.67
2022-08-26T15:39:08.639Z,18.81
2022-08-26T15:48:47.261Z,18.12
2022-08-26T15:58:22.598Z,18.23
2022-08-26T16:07:59.463Z,18.29
2022-08-26T16:17:36.769Z,18.48
2022-08-26T16:27:14.200Z,18.3
2022-08-26T16:36:51.236Z,18.27
2022-08-26T16:46:28.825Z,18.28
2022-08-26T16:56:06.442Z,18.52
2022-08-26T17:05:44.380Z,18.54
2022-08-26T17:15:23.631Z,18.31
2022-08-26T17:24:58.804Z,18.25
2022-08-26T17:34:36.407Z,18.33
2022-08-26T17:44:13.741Z,18.41
2022-08-26T17:53:52.883Z,18.37
2022-08-26T18:03:29.314Z,18.49
2022-08-26T18:13:06.557Z,18.38
2022-08-26T18:22:43.836Z,18.37
2022-08-26T18:32:21.541Z,18.37
2022-08-26T18:41:58.773Z,18.29
2022-08-26T18:51:36.093Z,18.18
2022-08-26T19:01:13.527Z,18.22
2022-08-26T19:10:50.702Z,18.23
2022-08-26T19:20:27.682Z,18.14
2022-08-26T19:30:04.722Z,18.04
2022-08-26T19:39:42.175Z,18.04
2022-08-26T19:49:19.407Z,18.03
2022-08-26T19:58:56.884Z,18.01
2022-08-26T20:08:36.124Z,17.98
2022-08-26T20:18:12.169Z,17.98
2022-08-26T20:27:49.113Z,18.09
2022-08-26T20:37:26.590Z,18.08
2022-08-26T20:47:06.060Z,18.02
2022-08-26T20:56:41.704Z,18.1
2022-08-26T21:06:19.229Z,18.12
2022-08-26T21:15:59.140Z,18.15
2022-08-26T21:25:34.903Z,18.12
2022-08-26T21:35:12.670Z,18.15
2022-08-26T21:44:52.689Z,18.12
2022-08-26T21:54:27.451Z,18.06
2022-08-26T22:04:04.455Z,18.05
2022-08-26T22:13:41.531Z,18.07
2022-08-26T22:23:20.997Z,18.07
2022-08-26T22:32:56.805Z,18.08
2022-08-26T22:42:34.249Z,18
2022-08-26T22:52:11.703Z,18
2022-08-26T23:01:49.447Z,17.94
2022-08-26T23:11:26.787Z,17.88
2022-08-26T23:21:04.151Z,17.83
2022-08-26T23:30:41.134Z,17.86
2022-08-26T23:40:18.705Z,17.92
2022-08-26T23:49:56.134Z,17.87
2022-08-26T23:59:33.969Z,17.84
